Terminal Aerodrome Forecast
Issued by NWS

Home | Current Version | Previous Version | Text Only | Print | Product List | Glossary On
Versions: 1 2 3 4 5 6 7 8 9 10 11 12 13 14 15 16 17 18 19 20 21 22 23 24 25 26 27 28 29 30 31 32 33 34 35 36 37 38 39 40 41 42
000
FTUS43 KDTX 032340
TAFPTK
TAF
KPTK 032340Z 0400/0424 20005KT 6SM -SHRA BKN045
      TEMPO 0400/0403 1SM TSRA BKN035CB
     FM040400 12004KT 4SM BR SCT030 BKN040
     FM040700 00000KT 3/4SM BR SCT040 BKN250
     FM041300 16003KT 6SM BR BKN035
     FM041600 17007KT P6SM BKN035=

USA.gov is the U.S. government's official web portal to all federal, state and local government web resources and services.